createdAt,value
2019-05-19T00:02:33.487Z,99122.48
2019-05-19T00:07:38.968Z,99107.72
2019-05-19T00:12:44.034Z,99111.34
2019-05-19T00:17:49.440Z,99110.91
2019-05-19T00:22:58.709Z,99109.34
2019-05-19T00:28:03.845Z,99105.86
2019-05-19T00:33:08.891Z,99103.11
2019-05-19T00:38:14.032Z,99104.38
2019-05-19T00:43:19.103Z,99100.53
2019-05-19T00:48:24.528Z,99100.03
2019-05-19T00:53:29.618Z,99096.00
2019-05-19T00:58:34.938Z,99089.17
2019-05-19T01:03:40.230Z,99087.20
2019-05-19T01:08:50.398Z,99087.95
2019-05-19T01:13:55.828Z,99084.20
2019-05-19T01:19:01.024Z,99087.06
2019-05-19T01:24:06.075Z,99083.40
2019-05-19T01:29:11.159Z,99081.84
2019-05-19T01:34:16.264Z,99079.41
2019-05-19T01:39:21.304Z,99082.49
2019-05-19T01:44:26.366Z,99076.49
2019-05-19T01:49:31.420Z,99076.64
2019-05-19T01:54:36.405Z,99072.22
2019-05-19T01:59:41.426Z,99068.02
2019-05-19T02:04:46.718Z,99067.06
2019-05-19T02:09:51.834Z,99064.00
2019-05-19T02:14:57.284Z,99067.19
2019-05-19T02:20:02.437Z,99067.57
2019-05-19T02:25:07.694Z,99067.47
2019-05-19T02:30:14.846Z,99066.30
2019-05-19T02:35:21.024Z,99068.97
2019-05-19T02:40:28.435Z,99068.45
2019-05-19T02:45:35.226Z,99067.14
2019-05-19T02:50:52.419Z,99067.94
2019-05-19T02:55:50.236Z,99070.64
2019-05-19T03:00:57.004Z,99070.98
2019-05-19T03:06:05.892Z,99070.14
2019-05-19T03:11:12.062Z,99064.73
2019-05-19T03:16:17.113Z,99065.27
2019-05-19T03:21:23.255Z,99070.61
2019-05-19T03:26:28.298Z,99075.39
2019-05-19T03:31:40.656Z,99076.97
2019-05-19T03:36:45.702Z,99070.33
2019-05-19T03:41:52.393Z,99071.73
2019-05-19T03:46:57.454Z,99077.91
2019-05-19T03:52:02.470Z,99074.61
2019-05-19T03:57:07.509Z,99077.80
2019-05-19T04:02:12.571Z,99074.62
2019-05-19T04:07:19.216Z,99074.31
2019-05-19T04:12:24.293Z,99079.43
2019-05-19T04:17:29.625Z,99081.02
2019-05-19T04:22:34.724Z,99074.98
2019-05-19T04:27:42.906Z,99073.52
2019-05-19T04:32:49.612Z,99072.00
2019-05-19T04:37:54.661Z,99076.13
2019-05-19T04:43:00.073Z,99072.46
2019-05-19T04:48:09.195Z,99079.03
2019-05-19T04:53:12.267Z,99077.12
2019-05-19T04:58:18.673Z,99072.98
2019-05-19T05:03:24.393Z,99078.11
2019-05-19T05:08:36.047Z,99081.88
2019-05-19T05:13:42.633Z,99086.19
2019-05-19T05:18:48.078Z,99085.97
2019-05-19T05:23:56.519Z,99088.77
2019-05-19T05:29:02.298Z,99079.50
2019-05-19T05:34:08.796Z,99086.95
2019-05-19T05:39:16.652Z,99101.41
2019-05-19T05:44:21.786Z,99096.27
2019-05-19T05:49:27.360Z,99087.20
2019-05-19T05:54:32.378Z,99090.31
2019-05-19T05:59:37.404Z,99093.30
2019-05-19T06:04:42.474Z,99093.14
2019-05-19T06:09:51.167Z,99093.66
2019-05-19T06:14:56.274Z,99096.06
2019-05-19T06:20:01.907Z,99089.36
2019-05-19T06:25:07.633Z,99092.66
2019-05-19T06:30:12.679Z,99087.42
2019-05-19T06:35:18.964Z,99082.62
2019-05-19T06:40:25.020Z,99084.14
2019-05-19T06:45:33.015Z,99086.72
2019-05-19T06:50:40.791Z,99081.34
2019-05-19T06:55:46.236Z,99083.30
2019-05-19T07:00:51.365Z,99083.26
2019-05-19T07:05:56.706Z,99082.00
2019-05-19T07:11:01.771Z,99077.06
2019-05-19T07:16:06.868Z,99072.13
2019-05-19T07:21:11.952Z,99065.21
2019-05-19T07:26:18.507Z,99064.98
2019-05-19T07:31:23.675Z,99057.36
2019-05-19T07:36:28.769Z,99061.55
2019-05-19T07:41:34.276Z,99065.39
2019-05-19T07:46:41.407Z,99062.59
2019-05-19T07:51:46.495Z,99050.91
2019-05-19T07:56:51.664Z,99053.52
2019-05-19T08:01:56.863Z,99057.47
2019-05-19T08:07:02.430Z,99056.97
2019-05-19T08:12:25.758Z,99054.58
2019-05-19T08:17:30.965Z,99049.05
2019-05-19T08:22:37.210Z,99042.73
2019-05-19T08:27:42.710Z,99041.84
2019-05-19T08:32:47.864Z,99043.88
2019-05-19T08:37:52.862Z,99043.83
2019-05-19T08:42:57.922Z,99036.81
2019-05-19T08:48:03.046Z,99042.22
2019-05-19T08:53:08.633Z,99036.52
2019-05-19T08:58:16.222Z,99041.58
2019-05-19T09:03:22.634Z,99044.80
2019-05-19T09:08:28.031Z,99034.59
2019-05-19T09:13:35.769Z,99027.58
2019-05-19T09:18:42.862Z,99032.58
2019-05-19T09:23:48.798Z,99030.73
2019-05-19T09:29:02.711Z,99032.48
2019-05-19T09:34:10.375Z,99037.78
2019-05-19T09:39:15.937Z,99030.33
2019-05-19T09:44:26.961Z,99027.67
2019-05-19T09:49:39.611Z,99027.95
2019-05-19T09:54:46.195Z,99030.21
2019-05-19T09:59:51.612Z,99024.16
2019-05-19T10:04:57.755Z,99017.29
2019-05-19T10:10:47.195Z,99015.25
2019-05-19T10:15:53.247Z,99017.95
2019-05-19T10:20:58.391Z,99014.77
2019-05-19T10:26:04.080Z,99013.30
2019-05-19T10:31:10.864Z,99012.39
2019-05-19T10:36:16.001Z,99004.28
2019-05-19T10:41:23.016Z,99001.22
2019-05-19T10:46:28.515Z,98998.88
2019-05-19T10:51:34.268Z,99005.86
2019-05-19T10:56:39.298Z,98999.64
2019-05-19T11:01:44.457Z,98995.59
2019-05-19T11:06:51.184Z,98990.88
2019-05-19T11:11:58.923Z,98991.38
2019-05-19T11:17:04.322Z,98995.33
2019-05-19T11:22:09.409Z,98985.17
2019-05-19T11:27:15.090Z,98983.41
2019-05-19T11:32:20.140Z,98984.98
2019-05-19T11:37:25.267Z,98977.17
2019-05-19T11:42:30.422Z,98984.86
2019-05-19T11:47:35.783Z,98977.72
2019-05-19T11:52:40.916Z,98977.42
2019-05-19T11:57:46.080Z,98985.33
2019-05-19T12:02:51.370Z,98981.64
2019-05-19T12:07:56.693Z,98973.16
2019-05-19T12:13:01.796Z,98976.82
2019-05-19T12:18:06.941Z,98971.08
2019-05-19T12:23:13.517Z,98968.35
2019-05-19T12:28:18.575Z,98966.98
2019-05-19T12:33:25.196Z,98969.33
2019-05-19T12:38:30.270Z,98960.05
2019-05-19T12:43:36.316Z,98966.77
2019-05-19T12:48:41.517Z,98959.29
2019-05-19T12:53:47.450Z,98962.14
2019-05-19T12:58:52.730Z,98963.77
2019-05-19T13:03:58.320Z,98950.79
2019-05-19T13:09:05.111Z,98947.95
2019-05-19T13:14:10.673Z,98940.87
2019-05-19T13:19:15.687Z,98925.75
2019-05-19T13:24:21.054Z,98925.75
2019-05-19T13:29:26.236Z,98924.22
2019-05-19T13:34:31.308Z,98930.34
2019-05-19T13:39:37.369Z,98930.50
2019-05-19T13:44:42.514Z,98911.03
2019-05-19T13:49:48.432Z,98905.11
2019-05-19T13:54:53.542Z,98917.75
2019-05-19T14:00:11.876Z,98900.77
2019-05-19T14:05:17.092Z,98909.61
2019-05-19T14:10:22.210Z,98913.20
2019-05-19T14:15:27.337Z,98905.86
2019-05-19T14:20:32.419Z,98892.39
2019-05-19T14:25:37.783Z,98901.63
2019-05-19T14:30:43.273Z,98903.17
2019-05-19T14:35:48.700Z,98892.47
2019-05-19T14:40:53.823Z,98890.25
2019-05-19T14:45:58.881Z,98891.52
2019-05-19T14:51:05.207Z,98891.43
2019-05-19T14:56:10.809Z,98887.25
2019-05-19T15:01:16.745Z,98876.05
2019-05-19T15:06:56.705Z,98874.63
2019-05-19T15:12:15.837Z,98862.47
2019-05-19T15:17:20.929Z,98865.03
2019-05-19T15:22:25.971Z,98871.57
2019-05-19T15:27:35.913Z,98867.94
2019-05-19T15:32:42.265Z,98860.42
2019-05-19T15:37:48.425Z,98858.23
2019-05-19T15:48:48.319Z,98850.05
2019-05-19T15:59:17.001Z,98841.59
2019-05-19T16:04:34.469Z,98843.56
2019-05-19T16:15:48.240Z,98825.63
2019-05-19T16:20:57.092Z,98828.53
2019-05-19T16:26:17.835Z,98827.78
2019-05-19T16:31:31.369Z,98823.75
2019-05-19T16:36:36.914Z,98825.33
2019-05-19T16:41:42.683Z,98828.31
2019-05-19T16:46:53.567Z,98811.47
2019-05-19T16:51:59.727Z,98816.59
2019-05-19T16:57:06.056Z,98804.91
2019-05-19T17:02:11.234Z,98810.56
2019-05-19T17:07:20.232Z,98814.10
2019-05-19T17:12:25.972Z,98813.80
2019-05-19T17:17:31.150Z,98807.23
2019-05-19T17:22:36.437Z,98807.64
2019-05-19T17:28:21.763Z,98804.73
2019-05-19T17:33:27.516Z,98805.37
2019-05-19T17:38:34.357Z,98814.66
2019-05-19T17:43:42.138Z,98813.92
2019-05-19T17:49:12.754Z,98812.88
2019-05-19T17:54:29.536Z,98814.48
2019-05-19T17:59:38.033Z,98824.72
2019-05-19T18:04:45.526Z,98823.34
2019-05-19T18:09:55.221Z,98822.88
2019-05-19T18:15:03.295Z,98818.75
2019-05-19T18:20:29.425Z,98823.56
2019-05-19T18:26:00.727Z,98825.75
2019-05-19T18:31:31.014Z,98822.52
2019-05-19T18:36:35.784Z,98817.70
2019-05-19T18:41:51.829Z,98820.84
2019-05-19T18:47:19.391Z,98819.30
2019-05-19T18:52:34.652Z,98827.69
2019-05-19T18:57:39.974Z,98824.84
2019-05-19T19:02:53.503Z,98824.31
2019-05-19T19:07:59.247Z,98826.23
2019-05-19T19:13:11.009Z,98827.68
2019-05-19T19:18:16.878Z,98830.41
2019-05-19T19:29:09.565Z,98838.27
2019-05-19T19:34:17.634Z,98842.96
2019-05-19T19:39:23.531Z,98846.84
2019-05-19T19:44:29.631Z,98849.81
2019-05-19T19:49:48.407Z,98849.08
2019-05-19T19:55:49.175Z,98848.50
2019-05-19T20:00:43.800Z,98850.87
2019-05-19T20:05:50.440Z,98842.23
2019-05-19T20:10:58.316Z,98842.23
2019-05-19T20:16:06.711Z,98836.66
2019-05-19T20:21:14.900Z,98840.36
2019-05-19T20:26:20.561Z,98841.36
2019-05-19T20:31:25.685Z,98844.66
2019-05-19T20:36:32.460Z,98843.70
2019-05-19T20:41:54.006Z,98841.78
2019-05-19T20:46:59.650Z,98836.75
2019-05-19T20:52:07.106Z,98835.19
2019-05-19T20:57:12.936Z,98834.63
2019-05-19T21:02:18.881Z,98837.14
2019-05-19T21:07:29.742Z,98835.97
2019-05-19T21:12:36.077Z,98832.50
2019-05-19T21:17:42.285Z,98833.64
2019-05-19T21:22:47.927Z,98829.03
2019-05-19T21:27:54.307Z,98834.81
2019-05-19T21:33:03.390Z,98832.50
2019-05-19T21:38:12.048Z,98833.84
2019-05-19T21:43:18.446Z,98830.73
2019-05-19T21:48:35.099Z,98826.30
2019-05-19T21:53:41.223Z,98839.04
2019-05-19T21:58:54.514Z,98830.10
2019-05-19T22:04:03.881Z,98829.70
2019-05-19T22:09:13.193Z,98831.39
2019-05-19T22:14:18.618Z,98827.69
2019-05-19T22:19:27.978Z,98824.39
2019-05-19T22:24:35.281Z,98834.20
2019-05-19T22:29:40.464Z,98846.56
2019-05-19T22:34:45.521Z,98842.92
2019-05-19T22:39:51.700Z,98840.59
2019-05-19T22:44:58.140Z,98834.00
2019-05-19T22:50:06.947Z,98831.66
2019-05-19T22:55:13.535Z,98817.20
2019-05-19T23:00:21.537Z,98807.14
2019-05-19T23:05:26.577Z,98810.51
2019-05-19T23:10:31.941Z,98817.44
2019-05-19T23:15:40.743Z,98814.16
2019-05-19T23:21:15.678Z,98809.86
2019-05-19T23:26:21.612Z,98796.32
2019-05-19T23:31:50.848Z,98802.07
2019-05-19T23:36:55.937Z,98808.66
2019-05-19T23:42:01.022Z,98815.20
2019-05-19T23:47:06.606Z,98823.88
2019-05-19T23:52:12.169Z,98809.93
2019-05-19T23:57:17.649Z,98812.83
